sensor_id;sensor_type;location;lat;lon;timestamp;P1;durP1;ratioP1;P2;durP2;ratioP2
27985;SDS011;15453;53.692;10.168;2023-03-01T00:01:11;18.45;;;10.23;;
27985;SDS011;15453;53.692;10.168;2023-03-01T00:03:41;22.50;;;11.45;;
27985;SDS011;15453;53.692;10.168;2023-03-01T00:06:06;18.88;;;11.15;;
27985;SDS011;15453;53.692;10.168;2023-03-01T00:08:32;22.25;;;11.48;;
27985;SDS011;15453;53.692;10.168;2023-03-01T00:13:47;22.17;;;10.27;;
27985;SDS011;15453;53.692;10.168;2023-03-01T00:16:16;18.85;;;10.75;;
27985;SDS011;15453;53.692;10.168;2023-03-01T00:18:43;23.00;;;10.65;;
27985;SDS011;15453;53.692;10.168;2023-03-01T00:21:09;21.35;;;11.60;;
27985;SDS011;15453;53.692;10.168;2023-03-01T00:23:35;20.02;;;11.20;;
27985;SDS011;15453;53.692;10.168;2023-03-01T00:26:02;19.48;;;10.73;;
27985;SDS011;15453;53.692;10.168;2023-03-01T00:28:31;22.13;;;10.88;;
27985;SDS011;15453;53.692;10.168;2023-03-01T00:31:01;21.77;;;10.88;;
27985;SDS011;15453;53.692;10.168;2023-03-01T00:33:28;21.13;;;10.60;;
27985;SDS011;15453;53.692;10.168;2023-03-01T00:35:53;20.45;;;11.07;;
27985;SDS011;15453;53.692;10.168;2023-03-01T00:38:18;22.13;;;11.02;;
27985;SDS011;15453;53.692;10.168;2023-03-01T00:40:44;17.27;;;9.85;;
27985;SDS011;15453;53.692;10.168;2023-03-01T00:43:09;18.23;;;10.45;;
27985;SDS011;15453;53.692;10.168;2023-03-01T00:45:35;19.35;;;10.35;;
27985;SDS011;15453;53.692;10.168;2023-03-01T00:48:00;19.08;;;9.68;;
27985;SDS011;15453;53.692;10.168;2023-03-01T00:50:25;17.80;;;9.80;;
27985;SDS011;15453;53.692;10.168;2023-03-01T00:52:54;19.73;;;10.82;;
27985;SDS011;15453;53.692;10.168;2023-03-01T00:55:20;19.50;;;9.95;;
27985;SDS011;15453;53.692;10.168;2023-03-01T00:57:46;18.05;;;9.60;;
27985;SDS011;15453;53.692;10.168;2023-03-01T01:00:11;18.25;;;10.10;;
27985;SDS011;15453;53.692;10.168;2023-03-01T01:02:36;22.92;;;10.10;;
27985;SDS011;15453;53.692;10.168;2023-03-01T01:05:02;17.33;;;9.60;;
27985;SDS011;15453;53.692;10.168;2023-03-01T01:07:27;17.17;;;9.52;;
27985;SDS011;15453;53.692;10.168;2023-03-01T01:09:53;18.10;;;9.27;;
27985;SDS011;15453;53.692;10.168;2023-03-01T01:12:18;19.80;;;10.30;;
27985;SDS011;15453;53.692;10.168;2023-03-01T01:14:43;16.70;;;9.80;;
27985;SDS011;15453;53.692;10.168;2023-03-01T01:17:09;17.20;;;9.07;;
27985;SDS011;15453;53.692;10.168;2023-03-01T01:19:34;16.70;;;8.60;;
27985;SDS011;15453;53.692;10.168;2023-03-01T01:21:59;15.68;;;8.50;;
27985;SDS011;15453;53.692;10.168;2023-03-01T01:24:25;17.05;;;9.23;;
27985;SDS011;15453;53.692;10.168;2023-03-01T01:26:50;17.40;;;9.98;;
27985;SDS011;15453;53.692;10.168;2023-03-01T01:29:15;17.85;;;9.50;;
27985;SDS011;15453;53.692;10.168;2023-03-01T01:31:41;17.33;;;9.27;;
27985;SDS011;15453;53.692;10.168;2023-03-01T01:34:09;15.55;;;8.63;;
27985;SDS011;15453;53.692;10.168;2023-03-01T01:36:38;15.13;;;8.68;;
27985;SDS011;15453;53.692;10.168;2023-03-01T01:39:03;17.05;;;8.85;;
27985;SDS011;15453;53.692;10.168;2023-03-01T01:41:29;15.75;;;7.63;;
27985;SDS011;15453;53.692;10.168;2023-03-01T01:46:40;15.80;;;9.00;;
27985;SDS011;15453;53.692;10.168;2023-03-01T01:49:07;16.05;;;9.27;;
27985;SDS011;15453;53.692;10.168;2023-03-01T01:51:44;16.08;;;9.13;;
27985;SDS011;15453;53.692;10.168;2023-03-01T01:54:17;16.67;;;9.68;;
27985;SDS011;15453;53.692;10.168;2023-03-01T01:56:57;15.90;;;9.18;;
27985;SDS011;15453;53.692;10.168;2023-03-01T01:59:25;15.93;;;9.15;;
27985;SDS011;15453;53.692;10.168;2023-03-01T02:01:53;16.80;;;8.75;;
27985;SDS011;15453;53.692;10.168;2023-03-01T02:04:19;18.02;;;9.60;;
27985;SDS011;15453;53.692;10.168;2023-03-01T02:06:51;15.35;;;8.77;;
27985;SDS011;15453;53.692;10.168;2023-03-01T02:09:22;15.75;;;8.77;;
27985;SDS011;15453;53.692;10.168;2023-03-01T02:11:48;16.45;;;8.73;;
27985;SDS011;15453;53.692;10.168;2023-03-01T02:14:15;17.98;;;9.10;;
27985;SDS011;15453;53.692;10.168;2023-03-01T02:16:41;13.77;;;8.43;;
27985;SDS011;15453;53.692;10.168;2023-03-01T02:19:07;15.48;;;7.75;;
27985;SDS011;15453;53.692;10.168;2023-03-01T02:24:44;10.00;;;5.70;;
27985;SDS011;15453;53.692;10.168;2023-03-01T02:27:22;14.05;;;7.50;;
27985;SDS011;15453;53.692;10.168;2023-03-01T02:29:53;13.10;;;7.32;;
27985;SDS011;15453;53.692;10.168;2023-03-01T02:32:18;14.93;;;8.20;;
27985;SDS011;15453;53.692;10.168;2023-03-01T02:34:50;14.18;;;8.82;;
27985;SDS011;15453;53.692;10.168;2023-03-01T02:37:17;15.20;;;7.47;;
27985;SDS011;15453;53.692;10.168;2023-03-01T02:39:49;12.20;;;7.43;;
27985;SDS011;15453;53.692;10.168;2023-03-01T02:42:22;15.45;;;8.48;;
27985;SDS011;15453;53.692;10.168;2023-03-01T02:44:51;9.43;;;5.75;;
27985;SDS011;15453;53.692;10.168;2023-03-01T02:47:16;12.88;;;8.15;;
27985;SDS011;15453;53.692;10.168;2023-03-01T02:49:42;13.32;;;8.32;;
27985;SDS011;15453;53.692;10.168;2023-03-01T02:52:19;12.02;;;7.30;;
27985;SDS011;15453;53.692;10.168;2023-03-01T02:55:03;12.73;;;7.55;;
27985;SDS011;15453;53.692;10.168;2023-03-01T02:57:34;11.48;;;6.93;;
27985;SDS011;15453;53.692;10.168;2023-03-01T03:00:03;12.27;;;6.30;;
27985;SDS011;15453;53.692;10.168;2023-03-01T03:02:32;11.60;;;6.78;;
27985;SDS011;15453;53.692;10.168;2023-03-01T03:05:07;13.52;;;7.45;;
27985;SDS011;15453;53.692;10.168;2023-03-01T03:07:35;13.65;;;7.20;;
27985;SDS011;15453;53.692;10.168;2023-03-01T03:10:03;12.32;;;7.30;;
27985;SDS011;15453;53.692;10.168;2023-03-01T03:12:31;11.48;;;7.15;;
27985;SDS011;15453;53.692;10.168;2023-03-01T03:14:56;13.52;;;6.75;;
27985;SDS011;15453;53.692;10.168;2023-03-01T03:17:21;12.98;;;7.18;;
27985;SDS011;15453;53.692;10.168;2023-03-01T03:19:46;14.05;;;7.93;;
27985;SDS011;15453;53.692;10.168;2023-03-01T03:22:12;16.45;;;7.03;;
27985;SDS011;15453;53.692;10.168;2023-03-01T03:24:37;16.23;;;7.80;;
27985;SDS011;15453;53.692;10.168;2023-03-01T03:27:03;10.82;;;6.28;;
27985;SDS011;15453;53.692;10.168;2023-03-01T03:29:29;10.48;;;6.20;;
27985;SDS011;15453;53.692;10.168;2023-03-01T03:31:54;12.07;;;5.53;;
27985;SDS011;15453;53.692;10.168;2023-03-01T03:34:19;11.00;;;6.22;;
27985;SDS011;15453;53.692;10.168;2023-03-01T03:36:45;15.85;;;6.68;;
27985;SDS011;15453;53.692;10.168;2023-03-01T03:39:10;11.73;;;6.90;;
27985;SDS011;15453;53.692;10.168;2023-03-01T03:41:35;11.75;;;6.97;;
27985;SDS011;15453;53.692;10.168;2023-03-01T03:44:00;12.40;;;7.25;;
27985;SDS011;15453;53.692;10.168;2023-03-01T03:46:26;10.98;;;6.55;;
27985;SDS011;15453;53.692;10.168;2023-03-01T03:48:51;12.95;;;7.28;;
27985;SDS011;15453;53.692;10.168;2023-03-01T03:51:17;13.15;;;6.65;;
27985;SDS011;15453;53.692;10.168;2023-03-01T03:53:43;11.15;;;6.32;;
27985;SDS011;15453;53.692;10.168;2023-03-01T03:56:09;10.30;;;6.47;;
27985;SDS011;15453;53.692;10.168;2023-03-01T03:58:35;9.98;;;5.75;;
27985;SDS011;15453;53.692;10.168;2023-03-01T04:01:01;16.60;;;6.72;;
27985;SDS011;15453;53.692;10.168;2023-03-01T04:03:27;12.80;;;6.20;;
27985;SDS011;15453;53.692;10.168;2023-03-01T04:05:53;8.63;;;5.72;;
27985;SDS011;15453;53.692;10.168;2023-03-01T04:08:20;10.35;;;6.60;;
27985;SDS011;15453;53.692;10.168;2023-03-01T04:10:49;10.23;;;6.30;;
27985;SDS011;15453;53.692;10.168;2023-03-01T04:13:17;10.48;;;6.28;;
27985;SDS011;15453;53.692;10.168;2023-03-01T04:15:48;9.40;;;5.65;;
27985;SDS011;15453;53.692;10.168;2023-03-01T04:18:18;12.25;;;5.75;;
27985;SDS011;15453;53.692;10.168;2023-03-01T04:20:44;11.55;;;6.63;;
27985;SDS011;15453;53.692;10.168;2023-03-01T04:28:30;10.90;;;6.55;;
27985;SDS011;15453;53.692;10.168;2023-03-01T04:31:01;9.37;;;6.27;;
27985;SDS011;15453;53.692;10.168;2023-03-01T04:33:37;11.23;;;6.50;;
27985;SDS011;15453;53.692;10.168;2023-03-01T04:36:03;9.60;;;6.68;;
27985;SDS011;15453;53.692;10.168;2023-03-01T04:38:30;10.55;;;6.72;;
27985;SDS011;15453;53.692;10.168;2023-03-01T04:40:55;11.00;;;6.85;;
27985;SDS011;15453;53.692;10.168;2023-03-01T04:43:20;12.82;;;7.00;;
27985;SDS011;15453;53.692;10.168;2023-03-01T04:45:46;13.13;;;7.43;;
27985;SDS011;15453;53.692;10.168;2023-03-01T04:48:11;11.85;;;7.28;;
27985;SDS011;15453;53.692;10.168;2023-03-01T04:50:36;10.80;;;6.65;;
27985;SDS011;15453;53.692;10.168;2023-03-01T04:53:02;12.02;;;6.53;;
27985;SDS011;15453;53.692;10.168;2023-03-01T04:55:27;13.27;;;6.80;;
27985;SDS011;15453;53.692;10.168;2023-03-01T04:57:53;8.45;;;5.78;;
27985;SDS011;15453;53.692;10.168;2023-03-01T05:00:20;9.25;;;5.72;;
27985;SDS011;15453;53.692;10.168;2023-03-01T05:02:46;9.18;;;5.40;;
27985;SDS011;15453;53.692;10.168;2023-03-01T05:05:13;9.30;;;5.72;;
27985;SDS011;15453;53.692;10.168;2023-03-01T05:07:39;8.77;;;5.60;;
27985;SDS011;15453;53.692;10.168;2023-03-01T05:10:04;11.73;;;5.88;;
27985;SDS011;15453;53.692;10.168;2023-03-01T05:12:29;8.55;;;5.88;;
27985;SDS011;15453;53.692;10.168;2023-03-01T05:14:54;9.70;;;5.88;;
27985;SDS011;15453;53.692;10.168;2023-03-01T05:17:20;9.98;;;5.13;;
27985;SDS011;15453;53.692;10.168;2023-03-01T05:19:45;9.88;;;5.68;;
27985;SDS011;15453;53.692;10.168;2023-03-01T05:22:11;10.02;;;5.05;;
27985;SDS011;15453;53.692;10.168;2023-03-01T05:24:36;8.38;;;5.13;;
27985;SDS011;15453;53.692;10.168;2023-03-01T05:27:01;15.07;;;6.10;;
27985;SDS011;15453;53.692;10.168;2023-03-01T05:29:28;10.38;;;5.68;;
27985;SDS011;15453;53.692;10.168;2023-03-01T05:31:56;13.85;;;6.22;;
27985;SDS011;15453;53.692;10.168;2023-03-01T05:34:24;8.85;;;5.65;;
27985;SDS011;15453;53.692;10.168;2023-03-01T05:39:22;8.32;;;5.60;;
27985;SDS011;15453;53.692;10.168;2023-03-01T05:41:51;8.68;;;5.38;;
27985;SDS011;15453;53.692;10.168;2023-03-01T05:44:17;14.50;;;6.15;;
27985;SDS011;15453;53.692;10.168;2023-03-01T05:46:43;12.07;;;6.10;;
27985;SDS011;15453;53.692;10.168;2023-03-01T05:49:09;9.43;;;6.15;;
27985;SDS011;15453;53.692;10.168;2023-03-01T05:51:35;12.73;;;6.57;;
27985;SDS011;15453;53.692;10.168;2023-03-01T05:54:00;11.00;;;6.40;;
27985;SDS011;15453;53.692;10.168;2023-03-01T05:56:25;11.07;;;6.18;;
27985;SDS011;15453;53.692;10.168;2023-03-01T05:58:50;10.05;;;5.97;;
27985;SDS011;15453;53.692;10.168;2023-03-01T06:01:16;12.63;;;5.95;;
27985;SDS011;15453;53.692;10.168;2023-03-01T06:03:41;9.45;;;6.32;;
27985;SDS011;15453;53.692;10.168;2023-03-01T06:06:06;12.82;;;6.93;;
27985;SDS011;15453;53.692;10.168;2023-03-01T06:08:32;10.90;;;6.05;;
27985;SDS011;15453;53.692;10.168;2023-03-01T06:10:57;15.23;;;6.75;;
27985;SDS011;15453;53.692;10.168;2023-03-01T06:13:22;10.98;;;6.60;;
27985;SDS011;15453;53.692;10.168;2023-03-01T06:15:48;10.57;;;5.85;;
27985;SDS011;15453;53.692;10.168;2023-03-01T06:18:13;12.30;;;6.30;;
27985;SDS011;15453;53.692;10.168;2023-03-01T06:20:39;12.13;;;7.05;;
27985;SDS011;15453;53.692;10.168;2023-03-01T06:23:04;12.80;;;7.07;;
27985;SDS011;15453;53.692;10.168;2023-03-01T06:25:29;11.30;;;6.60;;
27985;SDS011;15453;53.692;10.168;2023-03-01T06:27:54;12.38;;;7.38;;
27985;SDS011;15453;53.692;10.168;2023-03-01T06:30:20;12.75;;;7.22;;
27985;SDS011;15453;53.692;10.168;2023-03-01T06:32:47;15.20;;;7.43;;
27985;SDS011;15453;53.692;10.168;2023-03-01T06:35:14;14.98;;;7.32;;
27985;SDS011;15453;53.692;10.168;2023-03-01T06:37:42;13.35;;;7.65;;
27985;SDS011;15453;53.692;10.168;2023-03-01T06:40:08;11.45;;;6.72;;
27985;SDS011;15453;53.692;10.168;2023-03-01T06:42:36;12.77;;;7.25;;
27985;SDS011;15453;53.692;10.168;2023-03-01T06:45:03;18.52;;;7.78;;
27985;SDS011;15453;53.692;10.168;2023-03-01T06:47:30;13.82;;;7.50;;
27985;SDS011;15453;53.692;10.168;2023-03-01T06:49:58;15.13;;;7.97;;
27985;SDS011;15453;53.692;10.168;2023-03-01T06:52:23;13.80;;;7.75;;
27985;SDS011;15453;53.692;10.168;2023-03-01T06:54:49;12.80;;;8.27;;
27985;SDS011;15453;53.692;10.168;2023-03-01T06:57:14;13.82;;;8.05;;
27985;SDS011;15453;53.692;10.168;2023-03-01T06:59:39;14.30;;;8.48;;
27985;SDS011;15453;53.692;10.168;2023-03-01T07:02:04;18.30;;;8.77;;
27985;SDS011;15453;53.692;10.168;2023-03-01T07:04:30;15.88;;;10.05;;
27985;SDS011;15453;53.692;10.168;2023-03-01T07:06:55;14.63;;;9.07;;
27985;SDS011;15453;53.692;10.168;2023-03-01T07:09:21;13.82;;;8.88;;
27985;SDS011;15453;53.692;10.168;2023-03-01T07:11:48;20.23;;;9.25;;
27985;SDS011;15453;53.692;10.168;2023-03-01T07:14:13;18.15;;;9.93;;
27985;SDS011;15453;53.692;10.168;2023-03-01T07:16:39;18.00;;;10.45;;
27985;SDS011;15453;53.692;10.168;2023-03-01T07:19:04;20.23;;;10.70;;
27985;SDS011;15453;53.692;10.168;2023-03-01T07:21:30;15.68;;;9.50;;
27985;SDS011;15453;53.692;10.168;2023-03-01T07:23:55;18.05;;;10.20;;
27985;SDS011;15453;53.692;10.168;2023-03-01T07:26:20;16.13;;;10.00;;
27985;SDS011;15453;53.692;10.168;2023-03-01T07:28:46;14.73;;;9.77;;
27985;SDS011;15453;53.692;10.168;2023-03-01T07:31:11;17.77;;;10.57;;
27985;SDS011;15453;53.692;10.168;2023-03-01T07:33:36;17.92;;;10.60;;
27985;SDS011;15453;53.692;10.168;2023-03-01T07:36:02;17.58;;;10.52;;
27985;SDS011;15453;53.692;10.168;2023-03-01T07:38:28;16.30;;;9.40;;
27985;SDS011;15453;53.692;10.168;2023-03-01T07:40:57;16.70;;;10.93;;
27985;SDS011;15453;53.692;10.168;2023-03-01T07:43:24;18.13;;;10.30;;
27985;SDS011;15453;53.692;10.168;2023-03-01T07:45:49;21.95;;;10.68;;
27985;SDS011;15453;53.692;10.168;2023-03-01T07:48:14;18.58;;;11.32;;
27985;SDS011;15453;53.692;10.168;2023-03-01T07:50:39;19.25;;;11.40;;
27985;SDS011;15453;53.692;10.168;2023-03-01T07:53:05;20.10;;;11.75;;
27985;SDS011;15453;53.692;10.168;2023-03-01T07:55:30;17.55;;;11.68;;
27985;SDS011;15453;53.692;10.168;2023-03-01T07:57:55;20.60;;;11.75;;
27985;SDS011;15453;53.692;10.168;2023-03-01T08:00:20;22.83;;;12.23;;
27985;SDS011;15453;53.692;10.168;2023-03-01T08:02:46;20.77;;;12.27;;
27985;SDS011;15453;53.692;10.168;2023-03-01T08:05:11;19.73;;;11.80;;
27985;SDS011;15453;53.692;10.168;2023-03-01T08:07:36;19.98;;;11.70;;
27985;SDS011;15453;53.692;10.168;2023-03-01T08:10:02;21.52;;;12.13;;
27985;SDS011;15453;53.692;10.168;2023-03-01T08:12:27;20.02;;;12.30;;
27985;SDS011;15453;53.692;10.168;2023-03-01T08:14:53;21.83;;;12.57;;
27985;SDS011;15453;53.692;10.168;2023-03-01T08:17:18;22.85;;;12.90;;
27985;SDS011;15453;53.692;10.168;2023-03-01T08:19:44;23.35;;;13.82;;
27985;SDS011;15453;53.692;10.168;2023-03-01T08:22:09;22.92;;;14.50;;
27985;SDS011;15453;53.692;10.168;2023-03-01T08:24:35;23.83;;;15.00;;
27985;SDS011;15453;53.692;10.168;2023-03-01T08:27:00;23.55;;;14.35;;
27985;SDS011;15453;53.692;10.168;2023-03-01T08:29:27;26.27;;;14.98;;
27985;SDS011;15453;53.692;10.168;2023-03-01T08:31:52;25.55;;;15.52;;
27985;SDS011;15453;53.692;10.168;2023-03-01T08:34:18;23.45;;;14.80;;
27985;SDS011;15453;53.692;10.168;2023-03-01T08:36:44;26.08;;;15.57;;
27985;SDS011;15453;53.692;10.168;2023-03-01T08:39:11;22.15;;;14.57;;
27985;SDS011;15453;53.692;10.168;2023-03-01T08:41:39;27.63;;;14.95;;
27985;SDS011;15453;53.692;10.168;2023-03-01T08:44:04;22.33;;;14.50;;
27985;SDS011;15453;53.692;10.168;2023-03-01T08:46:31;22.25;;;13.52;;
27985;SDS011;15453;53.692;10.168;2023-03-01T08:48:59;22.48;;;14.18;;
27985;SDS011;15453;53.692;10.168;2023-03-01T08:51:25;27.00;;;14.73;;
27985;SDS011;15453;53.692;10.168;2023-03-01T08:53:51;20.75;;;13.23;;
27985;SDS011;15453;53.692;10.168;2023-03-01T08:56:17;23.35;;;14.90;;
27985;SDS011;15453;53.692;10.168;2023-03-01T08:58:46;18.55;;;12.25;;
27985;SDS011;15453;53.692;10.168;2023-03-01T09:01:14;20.35;;;13.43;;
27985;SDS011;15453;53.692;10.168;2023-03-01T09:03:41;21.40;;;13.98;;
27985;SDS011;15453;53.692;10.168;2023-03-01T09:06:07;21.92;;;13.30;;
27985;SDS011;15453;53.692;10.168;2023-03-01T09:08:37;21.50;;;12.50;;
27985;SDS011;15453;53.692;10.168;2023-03-01T09:13:29;23.40;;;13.45;;
27985;SDS011;15453;53.692;10.168;2023-03-01T09:15:57;21.02;;;13.70;;
27985;SDS011;15453;53.692;10.168;2023-03-01T09:18:23;24.75;;;14.20;;
27985;SDS011;15453;53.692;10.168;2023-03-01T09:20:49;20.63;;;13.23;;
27985;SDS011;15453;53.692;10.168;2023-03-01T09:23:14;19.63;;;11.90;;
27985;SDS011;15453;53.692;10.168;2023-03-01T09:25:39;20.73;;;13.50;;
27985;SDS011;15453;53.692;10.168;2023-03-01T09:28:04;20.80;;;13.15;;
27985;SDS011;15453;53.692;10.168;2023-03-01T09:30:30;22.88;;;13.52;;
27985;SDS011;15453;53.692;10.168;2023-03-01T09:32:58;20.38;;;12.45;;
27985;SDS011;15453;53.692;10.168;2023-03-01T09:35:23;21.92;;;13.52;;
27985;SDS011;15453;53.692;10.168;2023-03-01T09:37:49;20.55;;;13.35;;
27985;SDS011;15453;53.692;10.168;2023-03-01T09:40:19;21.02;;;13.45;;
27985;SDS011;15453;53.692;10.168;2023-03-01T09:45:43;26.90;;;13.48;;
27985;SDS011;15453;53.692;10.168;2023-03-01T09:48:13;23.73;;;14.23;;
27985;SDS011;15453;53.692;10.168;2023-03-01T09:50:46;22.67;;;12.25;;
27985;SDS011;15453;53.692;10.168;2023-03-01T09:53:22;20.55;;;13.35;;
27985;SDS011;15453;53.692;10.168;2023-03-01T09:55:55;20.70;;;12.00;;
27985;SDS011;15453;53.692;10.168;2023-03-01T09:58:47;20.48;;;12.68;;
27985;SDS011;15453;53.692;10.168;2023-03-01T10:06:48;18.48;;;11.70;;
27985;SDS011;15453;53.692;10.168;2023-03-01T10:09:28;16.60;;;10.30;;
27985;SDS011;15453;53.692;10.168;2023-03-01T10:11:57;16.30;;;10.18;;
27985;SDS011;15453;53.692;10.168;2023-03-01T10:14:36;20.55;;;11.65;;
27985;SDS011;15453;53.692;10.168;2023-03-01T10:17:12;19.52;;;11.95;;
27985;SDS011;15453;53.692;10.168;2023-03-01T10:19:45;18.15;;;11.63;;
27985;SDS011;15453;53.692;10.168;2023-03-01T10:22:18;19.75;;;12.70;;
27985;SDS011;15453;53.692;10.168;2023-03-01T10:24:48;25.33;;;12.07;;
27985;SDS011;15453;53.692;10.168;2023-03-01T10:27:24;17.00;;;11.50;;
27985;SDS011;15453;53.692;10.168;2023-03-01T10:30:05;21.23;;;12.02;;
27985;SDS011;15453;53.692;10.168;2023-03-01T10:32:36;18.15;;;12.15;;
27985;SDS011;15453;53.692;10.168;2023-03-01T10:35:01;20.15;;;13.25;;
27985;SDS011;15453;53.692;10.168;2023-03-01T10:37:26;24.80;;;14.50;;
27985;SDS011;15453;53.692;10.168;2023-03-01T10:40:01;21.45;;;11.85;;
27985;SDS011;15453;53.692;10.168;2023-03-01T10:42:38;18.27;;;12.23;;
27985;SDS011;15453;53.692;10.168;2023-03-01T10:48:13;21.63;;;11.95;;
27985;SDS011;15453;53.692;10.168;2023-03-01T10:50:41;19.05;;;11.43;;
27985;SDS011;15453;53.692;10.168;2023-03-01T10:53:20;19.52;;;12.35;;
27985;SDS011;15453;53.692;10.168;2023-03-01T10:56:07;19.65;;;11.77;;
27985;SDS011;15453;53.692;10.168;2023-03-01T10:58:39;21.10;;;12.52;;
27985;SDS011;15453;53.692;10.168;2023-03-01T11:04:02;20.38;;;11.50;;
27985;SDS011;15453;53.692;10.168;2023-03-01T11:06:31;17.23;;;10.48;;
27985;SDS011;15453;53.692;10.168;2023-03-01T11:08:57;18.50;;;10.85;;
27985;SDS011;15453;53.692;10.168;2023-03-01T11:11:39;15.43;;;9.48;;
27985;SDS011;15453;53.692;10.168;2023-03-01T11:14:23;17.25;;;10.43;;
27985;SDS011;15453;53.692;10.168;2023-03-01T11:17:01;16.52;;;10.63;;
27985;SDS011;15453;53.692;10.168;2023-03-01T11:19:28;20.27;;;11.80;;
27985;SDS011;15453;53.692;10.168;2023-03-01T11:21:59;17.50;;;10.40;;
27985;SDS011;15453;53.692;10.168;2023-03-01T11:24:31;20.00;;;11.73;;
27985;SDS011;15453;53.692;10.168;2023-03-01T11:27:04;14.20;;;8.75;;
27985;SDS011;15453;53.692;10.168;2023-03-01T11:29:38;18.40;;;10.93;;
27985;SDS011;15453;53.692;10.168;2023-03-01T11:32:08;17.30;;;10.20;;
27985;SDS011;15453;53.692;10.168;2023-03-01T11:34:39;15.95;;;9.77;;
27985;SDS011;15453;53.692;10.168;2023-03-01T11:37:13;11.05;;;7.22;;
27985;SDS011;15453;53.692;10.168;2023-03-01T11:42:35;12.75;;;7.53;;
27985;SDS011;15453;53.692;10.168;2023-03-01T11:45:10;14.93;;;7.93;;
27985;SDS011;15453;53.692;10.168;2023-03-01T11:50:15;12.05;;;7.30;;
27985;SDS011;15453;53.692;10.168;2023-03-01T11:52:56;14.40;;;9.05;;
27985;SDS011;15453;53.692;10.168;2023-03-01T11:58:51;13.23;;;8.60;;
27985;SDS011;15453;53.692;10.168;2023-03-01T12:01:29;15.60;;;9.65;;
27985;SDS011;15453;53.692;10.168;2023-03-01T12:07:00;14.40;;;9.07;;
27985;SDS011;15453;53.692;10.168;2023-03-01T12:15:05;12.52;;;8.07;;
27985;SDS011;15453;53.692;10.168;2023-03-01T12:20:14;12.27;;;8.35;;
27985;SDS011;15453;53.692;10.168;2023-03-01T12:40:22;10.35;;;6.70;;
27985;SDS011;15453;53.692;10.168;2023-03-01T12:45:38;8.85;;;6.47;;
27985;SDS011;15453;53.692;10.168;2023-03-01T12:48:19;11.27;;;6.05;;
27985;SDS011;15453;53.692;10.168;2023-03-01T12:50:52;8.75;;;5.78;;
27985;SDS011;15453;53.692;10.168;2023-03-01T12:53:23;9.68;;;6.18;;
27985;SDS011;15453;53.692;10.168;2023-03-01T12:55:49;8.95;;;5.90;;
27985;SDS011;15453;53.692;10.168;2023-03-01T13:03:28;9.60;;;5.93;;
27985;SDS011;15453;53.692;10.168;2023-03-01T13:06:22;8.38;;;5.07;;
27985;SDS011;15453;53.692;10.168;2023-03-01T13:11:59;8.43;;;5.47;;
27985;SDS011;15453;53.692;10.168;2023-03-01T13:16:53;10.73;;;6.87;;
27985;SDS011;15453;53.692;10.168;2023-03-01T13:19:20;8.43;;;5.97;;
27985;SDS011;15453;53.692;10.168;2023-03-01T13:21:49;11.35;;;6.47;;
27985;SDS011;15453;53.692;10.168;2023-03-01T13:24:26;9.68;;;6.13;;
27985;SDS011;15453;53.692;10.168;2023-03-01T13:29:30;8.73;;;6.07;;
27985;SDS011;15453;53.692;10.168;2023-03-01T13:32:18;13.50;;;7.85;;
27985;SDS011;15453;53.692;10.168;2023-03-01T13:34:44;10.45;;;6.85;;
27985;SDS011;15453;53.692;10.168;2023-03-01T13:37:18;9.55;;;6.72;;
27985;SDS011;15453;53.692;10.168;2023-03-01T13:39:45;9.18;;;6.45;;
27985;SDS011;15453;53.692;10.168;2023-03-01T13:45:02;7.65;;;5.35;;
27985;SDS011;15453;53.692;10.168;2023-03-01T13:47:30;7.55;;;5.45;;
27985;SDS011;15453;53.692;10.168;2023-03-01T13:50:00;7.15;;;4.82;;
27985;SDS011;15453;53.692;10.168;2023-03-01T13:52:37;6.93;;;4.20;;
27985;SDS011;15453;53.692;10.168;2023-03-01T13:55:06;6.65;;;4.50;;
27985;SDS011;15453;53.692;10.168;2023-03-01T13:57:42;7.40;;;5.07;;
27985;SDS011;15453;53.692;10.168;2023-03-01T14:00:31;8.23;;;5.67;;
27985;SDS011;15453;53.692;10.168;2023-03-01T14:05:37;7.38;;;5.07;;
27985;SDS011;15453;53.692;10.168;2023-03-01T14:08:05;6.95;;;4.53;;
27985;SDS011;15453;53.692;10.168;2023-03-01T14:10:46;8.83;;;5.90;;
27985;SDS011;15453;53.692;10.168;2023-03-01T14:16:19;8.25;;;5.78;;
27985;SDS011;15453;53.692;10.168;2023-03-01T14:18:59;8.25;;;5.60;;
27985;SDS011;15453;53.692;10.168;2023-03-01T14:21:34;7.70;;;5.40;;
27985;SDS011;15453;53.692;10.168;2023-03-01T14:24:01;8.55;;;5.75;;
27985;SDS011;15453;53.692;10.168;2023-03-01T14:26:27;7.95;;;5.60;;
27985;SDS011;15453;53.692;10.168;2023-03-01T14:28:52;10.23;;;6.65;;
27985;SDS011;15453;53.692;10.168;2023-03-01T14:31:36;9.15;;;6.25;;
27985;SDS011;15453;53.692;10.168;2023-03-01T14:34:03;9.75;;;6.65;;
27985;SDS011;15453;53.692;10.168;2023-03-01T14:36:31;11.32;;;6.80;;
27985;SDS011;15453;53.692;10.168;2023-03-01T14:38:58;10.65;;;6.28;;
27985;SDS011;15453;53.692;10.168;2023-03-01T14:41:30;9.27;;;6.50;;
27985;SDS011;15453;53.692;10.168;2023-03-01T14:46:29;11.85;;;7.35;;
27985;SDS011;15453;53.692;10.168;2023-03-01T14:49:01;14.52;;;6.70;;
27985;SDS011;15453;53.692;10.168;2023-03-01T14:51:29;10.55;;;7.20;;
27985;SDS011;15453;53.692;10.168;2023-03-01T14:53:55;10.02;;;6.70;;
27985;SDS011;15453;53.692;10.168;2023-03-01T14:56:21;13.32;;;6.55;;
27985;SDS011;15453;53.692;10.168;2023-03-01T14:58:46;9.50;;;6.65;;
27985;SDS011;15453;53.692;10.168;2023-03-01T15:01:16;9.18;;;6.93;;
27985;SDS011;15453;53.692;10.168;2023-03-01T15:03:43;12.70;;;7.97;;
27985;SDS011;15453;53.692;10.168;2023-03-01T15:06:11;13.18;;;8.02;;
27985;SDS011;15453;53.692;10.168;2023-03-01T15:08:41;16.52;;;8.25;;
27985;SDS011;15453;53.692;10.168;2023-03-01T15:11:28;13.60;;;8.60;;
27985;SDS011;15453;53.692;10.168;2023-03-01T15:13:55;11.02;;;6.65;;
27985;SDS011;15453;53.692;10.168;2023-03-01T15:16:27;11.32;;;7.75;;
27985;SDS011;15453;53.692;10.168;2023-03-01T15:18:56;12.57;;;8.70;;
27985;SDS011;15453;53.692;10.168;2023-03-01T15:21:25;13.73;;;8.83;;
27985;SDS011;15453;53.692;10.168;2023-03-01T15:23:54;13.50;;;8.25;;
27985;SDS011;15453;53.692;10.168;2023-03-01T15:26:41;11.73;;;7.65;;
27985;SDS011;15453;53.692;10.168;2023-03-01T15:29:16;10.93;;;7.18;;
27985;SDS011;15453;53.692;10.168;2023-03-01T15:34:46;11.05;;;7.10;;
27985;SDS011;15453;53.692;10.168;2023-03-01T15:40:19;13.00;;;8.18;;
27985;SDS011;15453;53.692;10.168;2023-03-01T15:42:49;13.95;;;9.23;;
27985;SDS011;15453;53.692;10.168;2023-03-01T15:47:52;13.70;;;9.13;;
27985;SDS011;15453;53.692;10.168;2023-03-01T15:50:21;16.70;;;9.15;;
27985;SDS011;15453;53.692;10.168;2023-03-01T15:52:49;13.57;;;8.48;;
27985;SDS011;15453;53.692;10.168;2023-03-01T15:55:17;13.32;;;8.18;;
27985;SDS011;15453;53.692;10.168;2023-03-01T15:57:42;11.73;;;7.38;;
27985;SDS011;15453;53.692;10.168;2023-03-01T16:00:11;10.90;;;6.75;;
27985;SDS011;15453;53.692;10.168;2023-03-01T16:02:38;7.88;;;5.43;;
27985;SDS011;15453;53.692;10.168;2023-03-01T16:05:04;7.70;;;5.07;;
27985;SDS011;15453;53.692;10.168;2023-03-01T16:07:30;6.88;;;4.80;;
27985;SDS011;15453;53.692;10.168;2023-03-01T16:09:56;5.88;;;4.15;;
27985;SDS011;15453;53.692;10.168;2023-03-01T16:12:22;5.60;;;4.05;;